Time;durP1;ratioP1;P1;durP2;ratioP2;P2;SDS_P1;SDS_P2;PMS_P1;PMS_P2;Temp;Humidity;BMP_temperature;BMP_pressure;BME280_temperature;BME280_humidity;BME280_pressure;Samples;Min_cycle;Max_cycle;Signal;HPM_P1;HPM_P2
2021/07/30 00:01:03;;;;;;;10.90;3.63;;;20.50;86.80;;;;;;4993747;28;20187;-84
2021/07/30 00:03:29;;;;;;;7.70;3.33;;;20.40;86.80;;;;;;4995569;28;20219;-85
2021/07/30 00:05:54;;;;;;;12.27;3.47;;;20.40;86.90;;;;;;4994313;28;20232;-84
2021/07/30 00:08:20;;;;;;;7.97;3.10;;;20.50;86.90;;;;;;4989468;28;20183;-85
2021/07/30 00:10:52;;;;;;;10.87;3.80;;;20.40;87.30;;;;;;4996445;28;20183;-85
2021/07/30 00:13:18;;;;;;;9.47;3.10;;;20.40;87.40;;;;;;5014049;28;20217;-83
2021/07/30 00:15:43;;;;;;;8.20;3.67;;;20.40;87.50;;;;;;4996473;28;20214;-84
2021/07/30 00:18:09;;;;;;;8.30;3.37;;;20.40;87.70;;;;;;4995892;28;20178;-83
2021/07/30 00:20:34;;;;;;;10.27;3.00;;;20.30;87.90;;;;;;5013548;28;20179;-84
2021/07/30 00:23:00;;;;;;;11.97;3.50;;;20.30;88.10;;;;;;4996361;28;20755;-80
2021/07/30 00:25:26;;;;;;;11.30;3.77;;;20.20;88.50;;;;;;4995158;28;20198;-80
2021/07/30 00:27:51;;;;;;;10.60;3.63;;;20.10;88.90;;;;;;4995123;28;20244;-80
2021/07/30 00:30:17;;;;;;;10.50;3.70;;;20.30;88.40;;;;;;4995336;28;20717;-80
2021/07/30 00:32:42;;;;;;;8.50;3.63;;;20.20;88.70;;;;;;5013003;28;20183;-80
2021/07/30 00:35:08;;;;;;;9.73;3.60;;;20.20;89.20;;;;;;4994668;28;20761;-83
2021/07/30 00:37:35;;;;;;;8.93;3.30;;;20.10;89.50;;;;;;4995342;28;20270;-81
2021/07/30 00:40:01;;;;;;;10.57;2.87;;;20.00;90.10;;;;;;5005866;28;20187;-81
2021/07/30 00:42:31;;;;;;;5.67;3.03;;;20.00;90.20;;;;;;4995665;28;20189;-81
2021/07/30 00:44:57;;;;;;;8.10;3.93;;;20.10;90.00;;;;;;5012972;28;22156;-81
2021/07/30 00:47:22;;;;;;;12.13;3.70;;;20.30;89.00;;;;;;5013317;28;20261;-80
2021/07/30 00:49:49;;;;;;;11.97;3.90;;;20.30;89.40;;;;;;4995010;28;20198;-81
2021/07/30 00:52:15;;;;;;;8.40;3.93;;;20.00;90.10;;;;;;4995226;28;20177;-80
2021/07/30 00:54:40;;;;;;;6.47;3.10;;;19.80;90.50;;;;;;4994575;28;20185;-81
2021/07/30 00:57:06;;;;;;;11.33;3.70;;;19.90;90.50;;;;;;5012739;28;20246;-82
2021/07/30 00:59:32;;;;;;;9.27;3.23;;;19.70;90.80;;;;;;5012871;28;20202;-80
2021/07/30 01:01:58;;;;;;;8.50;3.37;;;19.80;90.80;;;;;;5012374;28;20183;-80
2021/07/30 01:04:24;;;;;;;6.90;2.67;;;19.70;91.10;;;;;;4995025;28;20572;-80
2021/07/30 01:06:49;;;;;;;10.90;3.47;;;19.70;90.90;;;;;;4994827;28;20602;-80
2021/07/30 01:09:15;;;;;;;9.97;3.57;;;19.80;91.00;;;;;;5011902;28;20281;-80
2021/07/30 01:11:44;;;;;;;13.50;4.10;;;19.70;91.20;;;;;;5009138;28;20187;-81
2021/07/30 01:14:09;;;;;;;9.53;3.57;;;19.70;91.00;;;;;;4994389;28;20179;-80
2021/07/30 01:16:36;;;;;;;12.77;3.70;;;19.60;91.40;;;;;;4993844;28;20594;-81
2021/07/30 01:19:01;;;;;;;11.40;4.13;;;19.60;91.50;;;;;;4997138;28;20181;-80
2021/07/30 01:21:33;;;;;;;9.83;3.50;;;19.60;91.40;;;;;;4989311;28;20173;-81
2021/07/30 01:23:59;;;;;;;10.60;3.90;;;19.60;91.50;;;;;;5027863;28;20206;-81
2021/07/30 01:26:24;;;;;;;7.03;3.13;;;19.50;91.90;;;;;;5001682;28;20207;-82
2021/07/30 01:28:50;;;;;;;6.37;3.30;;;19.50;91.90;;;;;;4998925;28;20554;-85
2021/07/30 01:31:15;;;;;;;7.90;3.20;;;19.50;92.20;;;;;;4988841;28;20201;-86
2021/07/30 01:33:41;;;;;;;7.53;3.73;;;19.40;92.40;;;;;;4995450;28;20170;-83
2021/07/30 01:36:07;;;;;;;9.60;3.57;;;19.40;92.40;;;;;;4994974;28;20242;-85
2021/07/30 01:38:32;;;;;;;8.77;3.60;;;19.40;92.50;;;;;;4997045;28;20555;-84
2021/07/30 01:41:09;;;;;;;9.13;3.67;;;19.40;92.40;;;;;;5016928;28;20191;-86
2021/07/30 01:43:37;;;;;;;9.47;3.43;;;19.60;92.10;;;;;;4999182;28;20269;-85
2021/07/30 01:46:03;;;;;;;9.10;3.80;;;19.60;92.10;;;;;;4996692;28;20182;-86
2021/07/30 01:48:28;;;;;;;10.00;3.80;;;19.60;92.10;;;;;;5016767;28;20576;-85
2021/07/30 01:50:54;;;;;;;10.27;3.87;;;19.60;92.10;;;;;;4998465;28;20233;-86
2021/07/30 01:53:20;;;;;;;8.53;4.17;;;19.60;92.00;;;;;;4999157;28;20709;-79
2021/07/30 01:55:45;;;;;;;7.57;3.10;;;19.40;92.40;;;;;;5015917;28;20210;-87
2021/07/30 01:58:12;;;;;;;12.10;3.83;;;19.50;92.60;;;;;;4999232;28;20267;-86
2021/07/30 02:00:37;;;;;;;9.17;3.57;;;19.50;92.40;;;;;;5016070;28;20560;-87
2021/07/30 02:03:03;;;;;;;7.70;3.97;;;19.40;92.70;;;;;;4999046;28;20228;-85
2021/07/30 02:05:28;;;;;;;8.27;4.07;;;19.30;92.70;;;;;;4998440;28;20220;-88
2021/07/30 02:07:54;;;;;;;7.73;3.40;;;19.20;93.00;;;;;;4998725;28;20185;-87
2021/07/30 02:10:20;;;;;;;7.77;3.60;;;19.40;92.80;;;;;;4998730;28;20272;-82
2021/07/30 02:15:29;;;;;;;7.20;3.63;;;19.10;93.40;;;;;;5011966;28;20192;-84
2021/07/30 02:17:55;;;;;;;6.67;3.00;;;19.00;93.80;;;;;;5016544;28;20186;-86
2021/07/30 02:20:20;;;;;;;10.47;3.67;;;19.00;94.30;;;;;;4998287;28;20333;-85
2021/07/30 02:22:46;;;;;;;13.00;4.07;;;18.90;94.20;;;;;;4998659;28;20176;-83
2021/07/30 02:25:12;;;;;;;8.73;3.87;;;18.80;94.40;;;;;;4998247;28;20570;-86
2021/07/30 02:27:37;;;;;;;10.33;4.27;;;18.90;94.50;;;;;;4998408;28;20190;-86
2021/07/30 02:30:03;;;;;;;11.03;3.93;;;18.90;94.60;;;;;;4998037;28;20211;-83
2021/07/30 02:32:28;;;;;;;6.07;3.73;;;18.80;94.70;;;;;;4998269;28;20273;-84
2021/07/30 02:34:54;;;;;;;12.00;4.20;;;18.90;94.80;;;;;;4998243;28;20186;-86
2021/07/30 02:37:20;;;;;;;8.67;4.00;;;18.90;94.80;;;;;;4997777;28;20213;-86
2021/07/30 02:39:46;;;;;;;13.20;3.80;;;18.90;94.90;;;;;;4998154;28;20174;-87
2021/07/30 02:42:12;;;;;;;10.27;3.83;;;18.90;94.90;;;;;;4997353;28;20189;-84
2021/07/30 02:44:37;;;;;;;7.47;3.93;;;18.80;95.10;;;;;;4998601;28;20218;-86
2021/07/30 02:47:03;;;;;;;8.47;4.03;;;18.80;95.40;;;;;;5015731;28;20192;-82
2021/07/30 02:49:29;;;;;;;10.97;4.47;;;18.60;95.60;;;;;;5014373;28;20267;-87
2021/07/30 02:51:54;;;;;;;8.33;3.47;;;18.60;95.80;;;;;;4998199;28;20173;-87
2021/07/30 02:54:20;;;;;;;10.03;4.17;;;18.60;96.10;;;;;;5015629;28;20708;-86
2021/07/30 02:56:45;;;;;;;6.70;3.87;;;18.60;95.90;;;;;;4998210;28;20186;-87
2021/07/30 02:59:11;;;;;;;8.63;3.47;;;18.60;96.00;;;;;;4997636;28;20242;-86
2021/07/30 03:01:36;;;;;;;9.43;4.33;;;18.70;96.00;;;;;;4997614;28;20256;-84
2021/07/30 03:04:02;;;;;;;8.87;4.03;;;18.50;96.30;;;;;;4998035;28;20222;-86
2021/07/30 03:06:27;;;;;;;9.00;3.77;;;18.50;96.40;;;;;;4997653;28;20555;-87
2021/07/30 03:08:55;;;;;;;10.67;4.33;;;18.60;96.20;;;;;;4996805;28;20244;-84
2021/07/30 03:11:21;;;;;;;10.67;4.67;;;18.60;96.10;;;;;;5015358;28;20182;-83
2021/07/30 03:13:47;;;;;;;8.30;3.83;;;18.70;96.20;;;;;;4997494;28;20247;-84
2021/07/30 03:16:13;;;;;;;8.20;3.73;;;18.70;96.40;;;;;;4997270;28;20189;-86
2021/07/30 03:18:39;;;;;;;11.77;3.93;;;18.90;96.10;;;;;;4997157;28;20186;-87
2021/07/30 03:21:05;;;;;;;7.53;3.80;;;18.80;96.10;;;;;;4997722;28;20272;-88
2021/07/30 03:23:31;;;;;;;11.70;3.93;;;18.80;95.80;;;;;;4997434;28;20708;-86
2021/07/30 03:25:57;;;;;;;11.23;4.17;;;18.80;96.10;;;;;;4997510;28;20180;-86
2021/07/30 03:28:22;;;;;;;9.87;4.07;;;18.80;96.10;;;;;;5014691;28;20236;-82
2021/07/30 03:30:48;;;;;;;13.57;4.60;;;18.90;96.10;;;;;;4996661;28;20209;-85
2021/07/30 03:33:14;;;;;;;10.13;4.07;;;18.80;96.30;;;;;;4996669;28;20210;-85
2021/07/30 03:35:40;;;;;;;11.10;4.00;;;18.60;96.40;;;;;;4997497;28;20198;-86
2021/07/30 03:38:06;;;;;;;7.93;3.30;;;18.50;96.70;;;;;;5014290;28;20268;-87
2021/07/30 03:40:32;;;;;;;12.60;4.90;;;18.60;96.70;;;;;;4996628;28;20208;-85
2021/07/30 03:42:58;;;;;;;8.63;3.77;;;18.70;96.80;;;;;;4996539;28;20204;-83
2021/07/30 03:45:24;;;;;;;7.40;3.90;;;18.80;96.30;;;;;;5013964;28;20899;-87
2021/07/30 03:47:50;;;;;;;8.77;4.33;;;18.70;96.80;;;;;;4996845;28;20188;-85
2021/07/30 03:50:15;;;;;;;12.23;4.53;;;18.70;96.70;;;;;;4996802;28;20186;-86
2021/07/30 03:52:41;;;;;;;8.27;4.50;;;18.60;96.80;;;;;;4993141;28;20196;-82
2021/07/30 03:55:08;;;;;;;12.87;4.53;;;18.60;97.10;;;;;;4996869;28;20271;-83
2021/07/30 03:57:34;;;;;;;9.63;4.67;;;18.50;97.20;;;;;;5013907;28;20199;-87
2021/07/30 03:59:59;;;;;;;13.17;4.60;;;18.60;97.10;;;;;;4997043;28;20210;-83
2021/07/30 04:02:25;;;;;;;12.27;5.10;;;18.50;97.30;;;;;;4995626;28;20649;-83
2021/07/30 04:04:50;;;;;;;8.03;4.50;;;18.30;97.70;;;;;;4997194;28;20557;-83
2021/07/30 04:07:16;;;;;;;10.77;4.17;;;18.30;98.10;;;;;;4996553;28;20201;-83
2021/07/30 04:09:42;;;;;;;9.43;4.17;;;18.30;98.50;;;;;;4994924;28;20248;-86
2021/07/30 04:12:08;;;;;;;10.87;5.00;;;18.30;98.30;;;;;;4996756;28;20181;-84
2021/07/30 04:14:33;;;;;;;11.27;5.00;;;18.70;97.60;;;;;;4997469;28;20266;-84
2021/07/30 04:16:59;;;;;;;8.33;4.50;;;18.60;97.60;;;;;;4996866;28;20192;-84
2021/07/30 04:19:24;;;;;;;7.53;4.27;;;18.50;97.80;;;;;;4996219;28;20195;-84
2021/07/30 04:21:51;;;;;;;9.43;4.67;;;18.60;97.90;;;;;;4996954;28;20287;-85
2021/07/30 04:24:16;;;;;;;7.00;4.00;;;18.60;97.90;;;;;;4996339;28;20208;-83
2021/07/30 04:26:42;;;;;;;14.10;4.30;;;18.50;97.90;;;;;;4996047;28;20184;-84
2021/07/30 04:29:08;;;;;;;9.27;4.50;;;18.50;98.00;;;;;;4997041;28;20193;-87
2021/07/30 04:31:38;;;;;;;8.93;4.73;;;18.50;97.90;;;;;;5013406;28;20214;-88
2021/07/30 04:34:03;;;;;;;7.17;4.60;;;18.50;98.10;;;;;;4996517;28;20213;-87
2021/07/30 04:36:29;;;;;;;11.27;4.33;;;18.50;98.20;;;;;;4996524;28;20204;-86
2021/07/30 04:38:54;;;;;;;11.43;4.60;;;18.40;98.30;;;;;;4996194;28;20193;-87
2021/07/30 04:41:20;;;;;;;7.77;3.90;;;18.50;98.10;;;;;;4996826;28;20177;-86
2021/07/30 04:43:46;;;;;;;8.67;4.10;;;18.50;98.20;;;;;;4996293;28;20237;-83
2021/07/30 04:46:16;;;;;;;11.77;4.00;;;18.60;98.20;;;;;;4996687;28;20272;-83
2021/07/30 04:48:42;;;;;;;7.63;3.77;;;18.60;98.00;;;;;;5013566;28;20185;-85
2021/07/30 04:51:08;;;;;;;8.90;3.70;;;18.50;98.10;;;;;;4995489;28;20244;-85
2021/07/30 04:53:33;;;;;;;10.23;3.80;;;18.40;98.40;;;;;;4996132;28;20288;-88
2021/07/30 04:55:59;;;;;;;9.53;3.57;;;18.60;98.10;;;;;;4996280;28;20185;-83
2021/07/30 04:58:25;;;;;;;8.43;3.77;;;18.50;98.20;;;;;;4995869;28;20189;-84
2021/07/30 05:00:50;;;;;;;10.27;4.23;;;18.60;98.20;;;;;;4994960;28;20200;-84
2021/07/30 05:03:16;;;;;;;9.43;3.77;;;18.70;97.90;;;;;;5014021;28;20268;-81
2021/07/30 05:05:41;;;;;;;7.07;3.57;;;18.70;97.90;;;;;;5000408;28;20185;-83
2021/07/30 05:08:07;;;;;;;8.17;3.23;;;18.70;98.00;;;;;;4996173;28;20228;-82
2021/07/30 05:10:33;;;;;;;8.03;3.83;;;18.70;97.90;;;;;;4998394;28;20208;-81
2021/07/30 05:12:59;;;;;;;6.83;3.47;;;18.80;97.60;;;;;;4996449;28;20189;-80
2021/07/30 05:15:25;;;;;;;8.53;3.53;;;18.90;97.60;;;;;;4995589;28;20177;-80
2021/07/30 05:17:50;;;;;;;13.87;3.83;;;18.90;97.40;;;;;;5014710;28;20196;-85
2021/07/30 05:20:16;;;;;;;6.17;3.53;;;19.10;97.30;;;;;;4995480;28;20180;-82
2021/07/30 05:22:41;;;;;;;6.03;3.13;;;18.90;97.30;;;;;;4992211;28;20649;-84
2021/07/30 05:25:11;;;;;;;7.17;2.70;;;19.00;97.30;;;;;;5012724;28;20307;-80
2021/07/30 05:27:36;;;;;;;6.73;3.40;;;19.00;97.30;;;;;;4994671;28;20343;-80
2021/07/30 05:30:02;;;;;;;8.43;3.00;;;19.20;97.00;;;;;;4994521;28;20296;-80
2021/07/30 11:36:16;;;;;;;3.33;2.30;;;25.70;90.40;;;;;;5098090;23;20261;-82
2021/07/30 11:38:47;;;;;;;4.03;2.20;;;25.60;90.70;;;;;;4975673;28;20190;-83
2021/07/30 11:41:14;;;;;;;4.10;2.60;;;25.80;90.60;;;;;;4978445;28;20245;-82
2021/07/30 11:44:08;;;;;;;4.57;2.40;;;26.00;90.10;;;;;;4978772;28;20251;-83
2021/07/30 11:46:35;;;;;;;4.13;2.40;;;25.80;90.10;;;;;;4992267;28;20186;-83
2021/07/30 11:49:02;;;;;;;3.70;2.67;;;25.90;90.30;;;;;;4965988;28;20222;-82
2021/07/30 11:51:28;;;;;;;5.73;2.80;;;25.80;90.40;;;;;;4970417;28;20187;-82
2021/07/30 11:53:55;;;;;;;3.50;2.60;;;25.50;90.70;;;;;;4960523;28;20237;-82
2021/07/30 11:56:21;;;;;;;4.17;2.53;;;24.70;91.20;;;;;;4956978;28;20178;-85
2021/07/30 11:59:00;;;;;;;4.47;2.70;;;24.20;92.20;;;;;;4957227;28;20189;-84
2021/07/30 12:01:32;;;;;;;4.47;2.83;;;23.90;93.60;;;;;;4955453;28;20190;-82
2021/07/30 12:04:12;;;;;;;3.97;3.30;;;23.50;93.70;;;;;;4957247;28;20218;-84
2021/07/30 12:06:53;;;;;;;6.60;3.33;;;23.20;94.70;;;;;;4958712;28;20195;-81
2021/07/30 12:09:20;;;;;;;5.80;2.90;;;22.90;96.60;;;;;;4967975;28;20181;-81
2021/07/30 12:11:54;;;;;;;3.83;2.80;;;22.80;96.50;;;;;;4964329;28;20186;-80
2021/07/30 12:14:23;;;;;;;4.63;3.53;;;22.70;96.30;;;;;;4968788;28;20187;-80
2021/07/30 12:16:48;;;;;;;6.50;3.20;;;22.70;96.40;;;;;;4968814;28;20181;-80
2021/07/30 12:19:14;;;;;;;6.17;3.13;;;22.80;96.40;;;;;;4974018;28;20192;-81
2021/07/30 12:21:57;;;;;;;5.77;3.33;;;22.70;96.60;;;;;;4986116;28;20200;-81
2021/07/30 12:24:23;;;;;;;6.47;3.23;;;22.70;97.20;;;;;;4989764;28;20220;-81
2021/07/30 12:26:48;;;;;;;3.53;2.97;;;22.80;97.60;;;;;;4991846;28;20238;-81
2021/07/30 12:29:40;;;;;;;5.80;3.53;;;22.90;97.60;;;;;;4971706;28;20245;-82
2021/07/30 12:32:12;;;;;;;4.77;3.30;;;23.00;97.60;;;;;;4960521;28;20179;-86
2021/07/30 12:34:38;;;;;;;6.10;3.50;;;23.10;97.30;;;;;;4959977;28;20278;-86
2021/07/30 12:37:10;;;;;;;6.47;3.87;;;23.10;97.00;;;;;;4967358;28;20302;-81
2021/07/30 12:39:50;;;;;;;5.93;3.63;;;23.20;98.70;;;;;;4954499;28;20181;-82
2021/07/30 12:42:30;;;;;;;4.63;3.60;;;22.70;98.70;;;;;;4958938;28;20181;-81
2021/07/30 12:45:06;;;;;;;5.83;3.80;;;22.20;99.00;;;;;;4958136;28;20224;-81
2021/07/30 12:47:33;;;;;;;7.13;3.63;;;21.70;99.80;;;;;;4987271;28;20186;-81
2021/07/30 12:49:59;;;;;;;5.33;3.83;;;21.60;99.90;;;;;;4957826;28;20189;-81
2021/07/30 12:52:25;;;;;;;5.37;4.00;;;21.80;99.90;;;;;;4960308;28;20175;-81
2021/07/30 12:55:02;;;;;;;8.27;3.70;;;21.70;99.90;;;;;;4992136;28;20192;-90
2021/07/30 12:57:28;;;;;;;6.37;3.90;;;21.80;99.90;;;;;;4985322;28;20181;-87
2021/07/30 13:00:08;;;;;;;5.97;3.70;;;22.20;99.90;;;;;;4977110;28;20619;-83
2021/07/30 13:02:41;;;;;;;12.30;4.03;;;22.70;99.30;;;;;;4973551;28;20197;-86
2021/07/30 13:05:11;;;;;;;5.23;3.53;;;23.00;98.50;;;;;;4989533;28;20222;-88
2021/07/30 13:07:37;;;;;;;6.03;3.13;;;23.30;98.00;;;;;;4967611;28;20268;-88
2021/07/30 13:10:04;;;;;;;8.27;3.60;;;23.20;97.90;;;;;;4968267;28;20185;-92
2021/07/30 13:12:31;;;;;;;7.07;4.10;;;23.20;98.00;;;;;;4983893;28;20185;-93
2021/07/30 13:14:56;;;;;;;6.30;4.63;;;23.00;99.90;;;;;;4971984;28;20183;-84
2021/07/30 13:17:27;;;;;;;6.03;4.27;;;22.70;99.90;;;;;;4988590;28;20192;-85
2021/07/30 13:19:52;;;;;;;5.97;4.07;;;22.60;99.90;;;;;;4960596;28;20609;-92
2021/07/30 13:22:18;;;;;;;5.87;4.00;;;22.70;99.90;;;;;;4962523;28;20188;-92
2021/07/30 13:24:43;;;;;;;5.03;3.60;;;22.70;99.60;;;;;;4988866;28;20256;-88
2021/07/30 13:27:09;;;;;;;3.80;3.40;;;23.10;99.50;;;;;;4947281;28;20186;-82
2021/07/30 13:29:35;;;;;;;6.13;3.20;;;24.30;97.70;;;;;;4954174;28;20557;-91
2021/07/30 13:32:03;;;;;;;4.70;3.37;;;25.90;95.70;;;;;;4961075;28;20539;-91
2021/07/30 13:34:28;;;;;;;3.67;3.33;;;26.80;94.40;;;;;;4989180;28;20726;-89
2021/07/30 13:36:54;;;;;;;6.53;3.27;;;27.10;93.50;;;;;;4983152;28;20291;-91
2021/07/30 13:39:19;;;;;;;5.97;3.30;;;27.70;93.20;;;;;;4962578;28;20178;-95
2021/07/30 13:41:45;;;;;;;4.30;3.60;;;27.60;92.50;;;;;;4958977;28;20200;-92
2021/07/30 13:44:11;;;;;;;4.93;3.20;;;27.20;93.00;;;;;;4958350;28;20253;-94
2021/07/30 13:46:37;;;;;;;3.53;2.53;;;27.10;92.60;;;;;;4967176;28;20186;-92
2021/07/30 13:49:02;;;;;;;5.57;2.97;;;27.60;92.20;;;;;;4982802;28;20290;-84
2021/07/30 13:51:28;;;;;;;3.80;3.03;;;28.10;91.50;;;;;;4961488;28;20218;-85
2021/07/30 13:53:53;;;;;;;2.53;2.10;;;28.80;91.20;;;;;;4962729;28;20185;-83
2021/07/30 13:56:19;;;;;;;3.07;2.50;;;29.70;89.60;;;;;;4954743;28;20201;-81
2021/07/30 13:58:44;;;;;;;2.27;2.07;;;30.20;87.00;;;;;;4975791;28;20198;-83
2021/07/30 14:01:10;;;;;;;3.40;2.40;;;29.70;86.20;;;;;;4981836;28;20189;-80
2021/07/30 14:03:37;;;;;;;3.47;2.37;;;28.80;88.00;;;;;;4979678;28;20623;-81
2021/07/30 14:06:07;;;;;;;3.67;2.07;;;28.40;88.80;;;;;;4955314;28;20199;-86
2021/07/30 14:08:33;;;;;;;4.00;1.70;;;28.10;90.00;;;;;;4956746;28;20227;-82
2021/07/30 14:10:58;;;;;;;1.90;1.50;;;28.60;88.00;;;;;;4980682;28;20186;-83
2021/07/30 14:13:24;;;;;;;3.10;1.90;;;28.30;87.50;;;;;;4953835;28;20580;-82
2021/07/30 14:15:50;;;;;;;3.23;1.60;;;28.00;87.90;;;;;;4984391;28;20194;-80
2021/07/30 14:18:16;;;;;;;4.20;1.70;;;27.40;88.10;;;;;;4954593;28;20192;-79
2021/07/30 14:20:42;;;;;;;3.23;1.77;;;26.70;89.20;;;;;;4973786;28;20740;-82
2021/07/30 14:23:07;;;;;;;3.63;1.93;;;26.10;90.50;;;;;;4955216;28;20187;-82
2021/07/30 14:25:33;;;;;;;3.20;1.70;;;25.80;90.70;;;;;;4958469;28;20713;-82
2021/07/30 14:27:58;;;;;;;3.47;2.07;;;25.70;91.00;;;;;;4974102;28;20616;-82
2021/07/30 14:30:24;;;;;;;4.03;2.20;;;25.70;90.90;;;;;;4965124;28;20225;-82
2021/07/30 14:32:50;;;;;;;2.83;1.63;;;26.20;90.50;;;;;;4974518;28;20690;-86
2021/07/30 14:35:16;;;;;;;3.07;1.50;;;25.70;91.10;;;;;;4962122;28;20464;-87
2021/07/30 14:37:41;;;;;;;1.47;1.10;;;25.30;91.80;;;;;;4981846;28;20657;-82
2021/07/30 14:40:08;;;;;;;3.17;1.37;;;25.00;91.70;;;;;;4954710;28;20194;-82
2021/07/30 14:42:35;;;;;;;2.50;1.17;;;24.60;91.60;;;;;;4948660;28;20238;-82
2021/07/30 14:45:05;;;;;;;2.63;1.20;;;24.40;91.80;;;;;;4945050;28;20301;-82
2021/07/30 14:47:32;;;;;;;2.87;1.07;;;25.20;91.10;;;;;;4953393;28;20191;-82
2021/07/30 14:49:58;;;;;;;1.10;0.63;;;26.60;89.10;;;;;;4961315;28;20203;-82
2021/07/30 14:52:23;;;;;;;1.53;0.67;;;27.10;87.10;;;;;;4953134;28;20182;-82
2021/07/30 14:54:50;;;;;;;2.47;0.93;;;27.40;85.00;;;;;;4957677;28;20269;-82
2021/07/30 14:57:15;;;;;;;2.53;1.00;;;27.50;85.00;;;;;;4957771;28;20190;-82
2021/07/30 14:59:44;;;;;;;1.53;0.80;;;28.60;83.90;;;;;;4952540;28;20596;-82
2021/07/30 15:02:10;;;;;;;1.77;0.77;;;29.70;80.70;;;;;;4951788;28;20273;-82
2021/07/30 15:04:35;;;;;;;1.97;0.97;;;30.40;78.50;;;;;;4972890;28;20234;-90
2021/07/30 15:07:01;;;;;;;3.63;0.60;;;30.50;74.10;;;;;;4968267;28;20253;-91
2021/07/30 15:09:27;;;;;;;1.77;0.50;;;30.50;72.90;;;;;;4956473;28;20563;-92
2021/07/30 15:11:53;;;;;;;1.67;0.73;;;30.30;71.00;;;;;;4971480;28;20194;-90
2021/07/30 15:14:18;;;;;;;2.90;0.80;;;29.70;70.60;;;;;;4950695;28;20551;-91
2021/07/30 15:16:45;;;;;;;1.83;0.60;;;29.90;70.20;;;;;;4972857;28;20226;-82
2021/07/30 15:19:13;;;;;;;3.50;0.60;;;30.40;70.70;;;;;;4958692;28;20553;-81
2021/07/30 15:21:39;;;;;;;6.63;1.00;;;30.40;70.90;;;;;;4975453;28;20183;-82
2021/07/30 15:24:06;;;;;;;3.70;0.53;;;29.70;70.40;;;;;;4947980;28;20206;-82
2021/07/30 15:26:32;;;;;;;3.03;0.63;;;28.60;71.60;;;;;;4953486;28;20206;-82
2021/07/30 15:29:00;;;;;;;3.73;0.70;;;27.90;72.80;;;;;;4953027;28;20731;-82
2021/07/30 15:31:27;;;;;;;1.50;0.50;;;27.10;74.20;;;;;;4956593;28;20547;-81
2021/07/30 15:33:56;;;;;;;6.07;1.13;;;26.00;76.60;;;;;;4945435;28;20187;-81
2021/07/30 15:36:22;;;;;;;3.90;0.90;;;25.60;77.60;;;;;;4961523;28;20184;-81
2021/07/30 15:38:49;;;;;;;3.20;1.50;;;25.40;78.30;;;;;;4972339;28;20278;-82
2021/07/30 15:41:17;;;;;;;3.70;1.00;;;25.80;78.00;;;;;;4955239;28;20181;-82
2021/07/30 15:43:43;;;;;;;3.53;0.80;;;26.20;77.50;;;;;;4956017;28;20639;-82
2021/07/30 15:46:09;;;;;;;2.80;0.87;;;26.80;76.70;;;;;;4945121;28;20642;-94
2021/07/30 15:48:37;;;;;;;2.03;0.70;;;27.00;75.90;;;;;;4945807;29;20187;-91
2021/07/30 15:51:05;;;;;;;5.00;0.87;;;27.20;75.30;;;;;;4952204;28;20181;-93
2021/07/30 15:53:31;;;;;;;2.30;0.67;;;27.00;75.50;;;;;;4946902;29;20192;-93
2021/07/30 15:55:57;;;;;;;3.10;0.70;;;26.80;75.90;;;;;;4953033;28;20178;-86
2021/07/30 15:58:23;;;;;;;4.33;0.83;;;26.60;76.60;;;;;;4956846;28;20181;-81
2021/07/30 16:00:48;;;;;;;5.20;1.00;;;26.30;76.80;;;;;;4984648;28;20278;-81
2021/07/30 16:03:14;;;;;;;4.10;0.53;;;25.90;77.70;;;;;;4955551;28;20257;-81
2021/07/30 16:05:40;;;;;;;2.23;0.80;;;25.30;79.00;;;;;;4958050;28;20226;-81
2021/07/30 16:08:05;;;;;;;1.60;1.00;;;24.80;80.60;;;;;;4967053;28;20287;-81
2021/07/30 16:10:31;;;;;;;3.37;1.30;;;24.80;81.30;;;;;;4957611;28;20556;-94
2021/07/30 16:12:57;;;;;;;3.93;0.90;;;24.70;81.50;;;;;;4947427;28;20274;-93
2021/07/30 16:15:23;;;;;;;2.33;1.00;;;24.60;81.60;;;;;;4947779;28;20274;-93
2021/07/30 16:17:49;;;;;;;5.77;1.27;;;24.40;81.10;;;;;;4977179;28;20209;-89
2021/07/30 16:20:14;;;;;;;8.87;1.50;;;24.20;81.30;;;;;;4954130;28;20643;-88
2021/07/30 16:22:43;;;;;;;5.57;1.23;;;24.50;81.00;;;;;;4948835;28;20178;-94
2021/07/30 16:25:10;;;;;;;3.17;0.90;;;24.90;80.30;;;;;;4974694;28;20749;-94
2021/07/30 16:27:36;;;;;;;3.70;0.90;;;25.60;79.00;;;;;;4971413;28;20175;-94
2021/07/30 16:30:03;;;;;;;4.57;1.23;;;26.30;76.20;;;;;;4974286;28;20617;-90
2021/07/30 16:32:29;;;;;;;3.13;1.00;;;25.90;76.60;;;;;;4944573;28;20245;-83
2021/07/30 16:34:55;;;;;;;2.60;0.80;;;25.00;78.10;;;;;;4945547;29;20199;-81
2021/07/30 16:37:20;;;;;;;4.17;1.20;;;24.80;79.20;;;;;;4982488;28;20205;-80
2021/07/30 16:39:46;;;;;;;4.27;0.73;;;24.60;78.00;;;;;;4946447;28;20188;-80
2021/07/30 16:42:11;;;;;;;3.23;0.93;;;24.20;79.40;;;;;;4946899;28;20184;-93
2021/07/30 16:44:37;;;;;;;3.33;0.90;;;23.80;80.40;;;;;;4954711;28;20697;-93
2021/07/30 16:47:03;;;;;;;5.87;1.20;;;23.60;80.90;;;;;;4953337;28;20206;-90
2021/07/30 16:49:29;;;;;;;6.23;1.40;;;23.30;82.00;;;;;;4945355;28;20259;-92
2021/07/30 16:51:57;;;;;;;3.03;0.93;;;23.00;82.30;;;;;;4967785;28;20729;-94
2021/07/30 16:54:25;;;;;;;4.37;1.37;;;22.90;83.00;;;;;;4951168;28;20182;-92
2021/07/30 16:56:51;;;;;;;11.47;1.37;;;22.60;83.80;;;;;;4957735;28;20577;-92
2021/07/30 16:59:17;;;;;;;5.90;1.13;;;22.70;83.70;;;;;;4964870;28;20202;-89
2021/07/30 17:01:44;;;;;;;5.80;1.20;;;23.10;84.30;;;;;;4950016;28;20196;-90
2021/07/30 17:04:09;;;;;;;3.77;1.20;;;23.90;82.60;;;;;;4982700;28;20305;-88
2021/07/30 17:06:35;;;;;;;2.63;0.80;;;24.00;81.40;;;;;;4956845;28;20281;-91
2021/07/30 17:09:02;;;;;;;4.83;0.93;;;23.60;81.40;;;;;;4972726;28;20242;-91
2021/07/30 17:11:27;;;;;;;4.37;1.00;;;23.20;82.80;;;;;;4985782;28;20182;-91
2021/07/30 17:13:53;;;;;;;3.30;1.47;;;23.10;83.10;;;;;;4966794;28;20215;-90
2021/07/30 17:16:21;;;;;;;5.33;0.90;;;23.00;82.80;;;;;;4982570;28;20186;-88
2021/07/30 17:18:48;;;;;;;3.57;0.90;;;22.60;83.80;;;;;;4972122;28;20185;-92
2021/07/30 17:21:14;;;;;;;5.43;1.20;;;22.30;84.50;;;;;;4956343;28;20535;-92
2021/07/30 17:23:41;;;;;;;6.47;1.07;;;22.50;84.60;;;;;;4959507;28;20296;-92
2021/07/30 17:26:06;;;;;;;6.77;1.30;;;22.70;84.10;;;;;;4961929;28;20201;-92
2021/07/30 17:28:32;;;;;;;2.93;0.93;;;22.50;84.30;;;;;;4975011;28;20197;-92
2021/07/30 17:30:58;;;;;;;5.67;1.30;;;22.40;84.60;;;;;;4956302;28;20223;-92
2021/07/30 17:33:24;;;;;;;3.57;1.10;;;22.40;84.70;;;;;;4991104;28;20189;-92
2021/07/30 17:35:51;;;;;;;4.60;1.67;;;22.40;84.90;;;;;;4962970;28;20191;-92
2021/07/30 17:38:17;;;;;;;7.13;1.13;;;22.70;84.20;;;;;;4966056;28;20202;-91
2021/07/30 17:40:42;;;;;;;6.17;1.10;;;23.20;83.00;;;;;;4980582;28;20200;-93
2021/07/30 17:43:08;;;;;;;4.03;1.23;;;23.30;83.40;;;;;;4972068;28;20266;-92
2021/07/30 17:45:35;;;;;;;5.87;0.83;;;23.40;82.60;;;;;;4963437;28;20234;-86
2021/07/30 17:48:02;;;;;;;4.93;1.10;;;23.40;82.70;;;;;;4956056;28;20186;-87
2021/07/30 17:50:28;;;;;;;7.30;1.13;;;23.10;83.60;;;;;;4959609;28;20209;-91
2021/07/30 17:52:53;;;;;;;5.90;1.53;;;23.00;84.30;;;;;;4969557;28;20269;-88
2021/07/30 17:55:19;;;;;;;2.87;1.03;;;22.80;85.10;;;;;;4970723;28;20184;-88
2021/07/30 17:57:45;;;;;;;3.63;1.00;;;22.50;85.70;;;;;;4964378;28;20223;-89
2021/07/30 18:00:11;;;;;;;3.43;0.80;;;22.10;86.90;;;;;;4967709;28;20188;-89
2021/07/30 18:02:37;;;;;;;4.60;1.00;;;21.90;87.20;;;;;;4970946;28;20326;-92
2021/07/30 18:05:03;;;;;;;2.27;0.90;;;21.70;87.80;;;;;;4967073;28;20244;-90
2021/07/30 18:07:29;;;;;;;3.57;1.00;;;21.60;88.30;;;;;;4972949;28;20188;-89
2021/07/30 18:09:55;;;;;;;7.63;1.20;;;21.60;88.20;;;;;;4969520;28;20260;-92
2021/07/30 18:12:20;;;;;;;5.67;1.00;;;21.50;89.00;;;;;;4969377;28;20176;-92
2021/07/30 18:14:46;;;;;;;2.23;1.07;;;21.40;89.40;;;;;;4971107;28;20187;-92
2021/07/30 18:17:14;;;;;;;3.43;1.20;;;21.40;89.50;;;;;;4965992;28;20267;-87
2021/07/30 18:19:40;;;;;;;5.23;1.07;;;21.30;89.80;;;;;;4997339;28;20183;-89
2021/07/30 18:22:05;;;;;;;2.93;1.23;;;21.20;90.20;;;;;;4988109;28;20185;-91
2021/07/30 18:24:31;;;;;;;4.10;1.00;;;21.20;90.10;;;;;;4972180;28;20319;-88
2021/07/30 18:26:57;;;;;;;2.07;1.07;;;21.10;90.20;;;;;;4969364;28;20188;-89
2021/07/30 18:29:22;;;;;;;3.93;1.40;;;21.30;90.10;;;;;;4964885;28;20581;-90
2021/07/30 18:31:49;;;;;;;2.93;1.20;;;21.40;90.00;;;;;;4970215;28;20178;-88
2021/07/30 18:34:14;;;;;;;5.80;1.40;;;21.50;90.00;;;;;;4968295;28;20592;-93
2021/07/30 18:36:40;;;;;;;2.63;1.27;;;21.50;89.90;;;;;;4969218;28;20245;-91
2021/07/30 18:39:06;;;;;;;5.50;1.23;;;21.40;90.10;;;;;;4966376;28;20243;-86
2021/07/30 18:41:32;;;;;;;4.80;1.27;;;21.30;90.30;;;;;;4976531;28;20644;-92
2021/07/30 18:43:58;;;;;;;3.00;0.93;;;21.20;90.50;;;;;;4964657;28;20216;-89
2021/07/30 18:46:25;;;;;;;4.67;1.47;;;21.10;90.50;;;;;;4974172;28;20248;-91
2021/07/30 18:48:53;;;;;;;3.10;1.20;;;21.10;90.70;;;;;;4950648;28;20188;-90